sensor_id;sensor_type;location;lat;lon;timestamp;P1;durP1;ratioP1;P2;durP2;ratioP2
11854;SDS011;5987;53.140;8.904;2022-12-07T00:01:18;22.50;;;12.90;;
11854;SDS011;5987;53.140;8.904;2022-12-07T00:04:23;23.10;;;13.23;;
11854;SDS011;5987;53.140;8.904;2022-12-07T00:07:27;25.83;;;13.37;;
11854;SDS011;5987;53.140;8.904;2022-12-07T00:10:32;24.23;;;13.47;;
11854;SDS011;5987;53.140;8.904;2022-12-07T00:13:36;17.73;;;12.00;;
11854;SDS011;5987;53.140;8.904;2022-12-07T00:16:43;21.00;;;11.50;;
11854;SDS011;5987;53.140;8.904;2022-12-07T00:19:47;19.53;;;12.10;;
11854;SDS011;5987;53.140;8.904;2022-12-07T00:22:50;23.83;;;11.73;;
11854;SDS011;5987;53.140;8.904;2022-12-07T00:25:54;18.53;;;11.13;;
11854;SDS011;5987;53.140;8.904;2022-12-07T00:28:58;17.93;;;11.07;;
11854;SDS011;5987;53.140;8.904;2022-12-07T00:32:06;18.87;;;11.00;;
11854;SDS011;5987;53.140;8.904;2022-12-07T00:35:10;18.40;;;10.33;;
11854;SDS011;5987;53.140;8.904;2022-12-07T00:38:14;19.43;;;10.83;;
11854;SDS011;5987;53.140;8.904;2022-12-07T00:41:18;19.03;;;11.40;;
11854;SDS011;5987;53.140;8.904;2022-12-07T00:44:24;20.50;;;11.03;;
11854;SDS011;5987;53.140;8.904;2022-12-07T00:47:29;16.80;;;10.30;;
11854;SDS011;5987;53.140;8.904;2022-12-07T00:50:32;19.20;;;10.47;;
11854;SDS011;5987;53.140;8.904;2022-12-07T00:53:36;16.50;;;8.83;;
11854;SDS011;5987;53.140;8.904;2022-12-07T00:56:42;20.83;;;9.40;;
11854;SDS011;5987;53.140;8.904;2022-12-07T00:59:46;21.57;;;9.27;;
11854;SDS011;5987;53.140;8.904;2022-12-07T01:02:52;19.27;;;9.80;;
11854;SDS011;5987;53.140;8.904;2022-12-07T01:05:56;18.30;;;9.73;;
11854;SDS011;5987;53.140;8.904;2022-12-07T01:09:00;18.43;;;9.13;;
11854;SDS011;5987;53.140;8.904;2022-12-07T01:12:05;18.17;;;9.53;;
11854;SDS011;5987;53.140;8.904;2022-12-07T01:15:23;15.40;;;9.13;;
11854;SDS011;5987;53.140;8.904;2022-12-07T01:18:29;15.87;;;8.23;;
11854;SDS011;5987;53.140;8.904;2022-12-07T01:21:36;18.17;;;8.60;;
11854;SDS011;5987;53.140;8.904;2022-12-07T01:24:41;18.40;;;9.43;;
11854;SDS011;5987;53.140;8.904;2022-12-07T01:27:45;18.27;;;8.30;;
11854;SDS011;5987;53.140;8.904;2022-12-07T01:30:54;15.90;;;8.60;;
11854;SDS011;5987;53.140;8.904;2022-12-07T01:34:01;14.33;;;8.10;;
11854;SDS011;5987;53.140;8.904;2022-12-07T01:37:05;15.83;;;8.00;;
11854;SDS011;5987;53.140;8.904;2022-12-07T01:40:09;12.63;;;6.80;;
11854;SDS011;5987;53.140;8.904;2022-12-07T01:43:15;13.23;;;6.47;;
11854;SDS011;5987;53.140;8.904;2022-12-07T01:46:28;9.77;;;5.90;;
11854;SDS011;5987;53.140;8.904;2022-12-07T01:49:34;14.57;;;6.03;;
11854;SDS011;5987;53.140;8.904;2022-12-07T01:52:41;12.33;;;5.20;;
11854;SDS011;5987;53.140;8.904;2022-12-07T01:55:49;9.47;;;4.50;;
11854;SDS011;5987;53.140;8.904;2022-12-07T01:58:56;10.87;;;5.47;;
11854;SDS011;5987;53.140;8.904;2022-12-07T02:02:04;10.20;;;4.43;;
11854;SDS011;5987;53.140;8.904;2022-12-07T02:05:17;7.63;;;4.33;;
11854;SDS011;5987;53.140;8.904;2022-12-07T02:08:22;11.17;;;4.17;;
11854;SDS011;5987;53.140;8.904;2022-12-07T02:11:27;6.33;;;3.00;;
11854;SDS011;5987;53.140;8.904;2022-12-07T02:14:30;8.20;;;3.40;;
11854;SDS011;5987;53.140;8.904;2022-12-07T02:17:36;7.40;;;3.80;;
11854;SDS011;5987;53.140;8.904;2022-12-07T02:20:55;6.13;;;3.80;;
11854;SDS011;5987;53.140;8.904;2022-12-07T02:24:14;10.23;;;3.83;;
11854;SDS011;5987;53.140;8.904;2022-12-07T02:27:39;5.70;;;3.03;;
11854;SDS011;5987;53.140;8.904;2022-12-07T02:30:51;9.57;;;3.53;;
11854;SDS011;5987;53.140;8.904;2022-12-07T02:34:02;7.63;;;3.60;;
11854;SDS011;5987;53.140;8.904;2022-12-07T02:37:18;7.90;;;3.20;;
11854;SDS011;5987;53.140;8.904;2022-12-07T02:40:36;8.37;;;3.57;;
11854;SDS011;5987;53.140;8.904;2022-12-07T02:43:47;6.97;;;3.70;;
11854;SDS011;5987;53.140;8.904;2022-12-07T02:46:59;6.63;;;3.57;;
11854;SDS011;5987;53.140;8.904;2022-12-07T02:50:10;11.60;;;5.03;;
11854;SDS011;5987;53.140;8.904;2022-12-07T02:53:31;12.03;;;4.60;;
11854;SDS011;5987;53.140;8.904;2022-12-07T02:56:37;8.20;;;4.00;;
11854;SDS011;5987;53.140;8.904;2022-12-07T02:59:55;8.37;;;4.57;;
11854;SDS011;5987;53.140;8.904;2022-12-07T03:03:09;9.27;;;4.07;;
11854;SDS011;5987;53.140;8.904;2022-12-07T03:06:17;10.53;;;5.43;;
11854;SDS011;5987;53.140;8.904;2022-12-07T03:09:32;8.07;;;4.80;;
11854;SDS011;5987;53.140;8.904;2022-12-07T03:12:47;7.33;;;4.27;;
11854;SDS011;5987;53.140;8.904;2022-12-07T03:16:07;8.43;;;4.53;;
11854;SDS011;5987;53.140;8.904;2022-12-07T03:19:19;5.87;;;4.30;;
11854;SDS011;5987;53.140;8.904;2022-12-07T03:22:26;10.43;;;4.33;;
11854;SDS011;5987;53.140;8.904;2022-12-07T03:25:38;6.83;;;4.00;;
11854;SDS011;5987;53.140;8.904;2022-12-07T03:28:47;15.97;;;4.53;;
11854;SDS011;5987;53.140;8.904;2022-12-07T03:31:57;12.80;;;3.60;;
11854;SDS011;5987;53.140;8.904;2022-12-07T03:35:09;4.20;;;2.77;;
11854;SDS011;5987;53.140;8.904;2022-12-07T03:38:20;8.23;;;3.00;;
11854;SDS011;5987;53.140;8.904;2022-12-07T03:41:31;6.70;;;3.03;;
11854;SDS011;5987;53.140;8.904;2022-12-07T03:44:45;8.23;;;2.70;;
11854;SDS011;5987;53.140;8.904;2022-12-07T03:47:52;6.00;;;2.50;;
11854;SDS011;5987;53.140;8.904;2022-12-07T03:51:11;5.70;;;2.00;;
11854;SDS011;5987;53.140;8.904;2022-12-07T03:54:24;7.37;;;1.90;;
11854;SDS011;5987;53.140;8.904;2022-12-07T03:57:37;6.53;;;1.67;;
11854;SDS011;5987;53.140;8.904;2022-12-07T04:00:44;4.17;;;1.93;;
11854;SDS011;5987;53.140;8.904;2022-12-07T04:03:48;5.33;;;1.53;;
11854;SDS011;5987;53.140;8.904;2022-12-07T04:06:53;8.80;;;1.77;;
11854;SDS011;5987;53.140;8.904;2022-12-07T04:09:57;5.30;;;1.57;;
11854;SDS011;5987;53.140;8.904;2022-12-07T04:13:01;7.23;;;1.70;;
11854;SDS011;5987;53.140;8.904;2022-12-07T04:16:05;7.33;;;2.10;;
11854;SDS011;5987;53.140;8.904;2022-12-07T04:19:09;5.17;;;2.10;;
11854;SDS011;5987;53.140;8.904;2022-12-07T04:22:14;5.83;;;2.20;;
11854;SDS011;5987;53.140;8.904;2022-12-07T04:25:18;4.30;;;1.80;;
11854;SDS011;5987;53.140;8.904;2022-12-07T04:28:22;4.10;;;2.17;;
11854;SDS011;5987;53.140;8.904;2022-12-07T04:31:25;6.60;;;2.10;;
11854;SDS011;5987;53.140;8.904;2022-12-07T04:34:29;7.23;;;2.53;;
11854;SDS011;5987;53.140;8.904;2022-12-07T04:37:34;6.27;;;2.27;;
11854;SDS011;5987;53.140;8.904;2022-12-07T04:40:40;6.57;;;2.47;;
11854;SDS011;5987;53.140;8.904;2022-12-07T04:43:44;6.90;;;2.77;;
11854;SDS011;5987;53.140;8.904;2022-12-07T04:46:48;6.27;;;2.93;;
11854;SDS011;5987;53.140;8.904;2022-12-07T04:49:52;6.40;;;3.13;;
11854;SDS011;5987;53.140;8.904;2022-12-07T04:52:57;7.67;;;3.60;;
11854;SDS011;5987;53.140;8.904;2022-12-07T04:56:01;7.67;;;4.10;;
11854;SDS011;5987;53.140;8.904;2022-12-07T04:59:05;7.63;;;4.10;;
11854;SDS011;5987;53.140;8.904;2022-12-07T05:02:10;7.00;;;4.17;;
11854;SDS011;5987;53.140;8.904;2022-12-07T05:05:14;6.17;;;3.93;;
11854;SDS011;5987;53.140;8.904;2022-12-07T05:08:19;12.53;;;3.60;;
11854;SDS011;5987;53.140;8.904;2022-12-07T05:11:23;7.37;;;3.47;;
11854;SDS011;5987;53.140;8.904;2022-12-07T05:14:42;8.90;;;3.50;;
11854;SDS011;5987;53.140;8.904;2022-12-07T05:17:45;8.53;;;3.47;;
11854;SDS011;5987;53.140;8.904;2022-12-07T05:20:49;11.27;;;3.57;;
11854;SDS011;5987;53.140;8.904;2022-12-07T05:23:54;9.37;;;3.53;;
11854;SDS011;5987;53.140;8.904;2022-12-07T05:26:58;9.93;;;4.30;;
11854;SDS011;5987;53.140;8.904;2022-12-07T05:30:02;7.03;;;3.17;;
11854;SDS011;5987;53.140;8.904;2022-12-07T05:33:07;6.97;;;3.07;;
11854;SDS011;5987;53.140;8.904;2022-12-07T05:36:11;8.23;;;3.47;;
11854;SDS011;5987;53.140;8.904;2022-12-07T05:39:16;6.33;;;2.90;;
11854;SDS011;5987;53.140;8.904;2022-12-07T05:42:20;8.67;;;3.00;;
11854;SDS011;5987;53.140;8.904;2022-12-07T05:45:23;6.60;;;2.87;;
11854;SDS011;5987;53.140;8.904;2022-12-07T05:48:27;4.97;;;3.10;;
11854;SDS011;5987;53.140;8.904;2022-12-07T05:51:31;6.67;;;2.93;;
11854;SDS011;5987;53.140;8.904;2022-12-07T05:54:42;2.50;;;2.10;;
11854;SDS011;5987;53.140;8.904;2022-12-07T05:58:10;5.47;;;3.30;;
11854;SDS011;5987;53.140;8.904;2022-12-07T06:01:31;7.93;;;2.90;;
11854;SDS011;5987;53.140;8.904;2022-12-07T06:04:36;6.77;;;2.47;;
11854;SDS011;5987;53.140;8.904;2022-12-07T06:07:42;5.17;;;2.03;;
11854;SDS011;5987;53.140;8.904;2022-12-07T06:10:48;6.00;;;2.20;;
11854;SDS011;5987;53.140;8.904;2022-12-07T06:14:13;4.17;;;1.83;;
11854;SDS011;5987;53.140;8.904;2022-12-07T06:17:16;2.57;;;1.63;;
11854;SDS011;5987;53.140;8.904;2022-12-07T06:20:20;3.33;;;1.73;;
11854;SDS011;5987;53.140;8.904;2022-12-07T06:23:23;5.00;;;2.23;;
11854;SDS011;5987;53.140;8.904;2022-12-07T06:26:28;5.93;;;1.57;;
11854;SDS011;5987;53.140;8.904;2022-12-07T06:29:32;4.43;;;1.50;;
11854;SDS011;5987;53.140;8.904;2022-12-07T06:32:36;2.57;;;1.47;;
11854;SDS011;5987;53.140;8.904;2022-12-07T06:35:40;3.17;;;1.50;;
11854;SDS011;5987;53.140;8.904;2022-12-07T06:38:44;4.13;;;1.73;;
11854;SDS011;5987;53.140;8.904;2022-12-07T06:41:49;2.90;;;1.50;;
11854;SDS011;5987;53.140;8.904;2022-12-07T06:44:55;3.67;;;2.20;;
11854;SDS011;5987;53.140;8.904;2022-12-07T06:47:58;5.07;;;2.27;;
11854;SDS011;5987;53.140;8.904;2022-12-07T06:51:03;4.03;;;2.07;;
11854;SDS011;5987;53.140;8.904;2022-12-07T06:54:07;8.13;;;2.00;;
11854;SDS011;5987;53.140;8.904;2022-12-07T06:57:12;4.73;;;1.77;;
11854;SDS011;5987;53.140;8.904;2022-12-07T07:00:16;5.23;;;1.77;;
11854;SDS011;5987;53.140;8.904;2022-12-07T07:03:23;3.70;;;1.90;;
11854;SDS011;5987;53.140;8.904;2022-12-07T07:06:27;3.83;;;2.10;;
11854;SDS011;5987;53.140;8.904;2022-12-07T07:09:31;2.43;;;1.63;;
11854;SDS011;5987;53.140;8.904;2022-12-07T07:12:36;4.50;;;1.83;;
11854;SDS011;5987;53.140;8.904;2022-12-07T07:15:40;2.50;;;1.53;;
11854;SDS011;5987;53.140;8.904;2022-12-07T07:18:44;5.60;;;2.00;;
11854;SDS011;5987;53.140;8.904;2022-12-07T07:21:47;4.13;;;1.40;;
11854;SDS011;5987;53.140;8.904;2022-12-07T07:24:51;5.27;;;1.73;;
11854;SDS011;5987;53.140;8.904;2022-12-07T07:27:56;3.97;;;1.50;;
11854;SDS011;5987;53.140;8.904;2022-12-07T07:31:01;3.40;;;1.67;;
11854;SDS011;5987;53.140;8.904;2022-12-07T07:34:04;6.00;;;1.90;;
11854;SDS011;5987;53.140;8.904;2022-12-07T07:37:09;7.93;;;2.47;;
11854;SDS011;5987;53.140;8.904;2022-12-07T07:40:22;4.00;;;2.00;;
11854;SDS011;5987;53.140;8.904;2022-12-07T07:43:27;6.57;;;1.93;;
11854;SDS011;5987;53.140;8.904;2022-12-07T07:46:31;5.73;;;2.00;;
11854;SDS011;5987;53.140;8.904;2022-12-07T07:49:35;9.07;;;2.27;;
11854;SDS011;5987;53.140;8.904;2022-12-07T07:52:45;3.80;;;2.10;;
11854;SDS011;5987;53.140;8.904;2022-12-07T07:55:52;7.77;;;2.60;;
11854;SDS011;5987;53.140;8.904;2022-12-07T07:58:58;13.43;;;3.33;;
11854;SDS011;5987;53.140;8.904;2022-12-07T08:02:01;7.20;;;3.30;;
11854;SDS011;5987;53.140;8.904;2022-12-07T08:05:06;10.33;;;2.70;;
11854;SDS011;5987;53.140;8.904;2022-12-07T08:08:10;9.00;;;3.53;;
11854;SDS011;5987;53.140;8.904;2022-12-07T08:11:14;9.17;;;3.13;;
11854;SDS011;5987;53.140;8.904;2022-12-07T08:14:20;6.47;;;2.70;;
11854;SDS011;5987;53.140;8.904;2022-12-07T08:17:24;11.23;;;2.93;;
11854;SDS011;5987;53.140;8.904;2022-12-07T08:20:29;8.63;;;3.67;;
11854;SDS011;5987;53.140;8.904;2022-12-07T08:23:34;9.57;;;4.00;;
11854;SDS011;5987;53.140;8.904;2022-12-07T08:26:40;11.17;;;3.60;;
11854;SDS011;5987;53.140;8.904;2022-12-07T08:29:45;6.07;;;3.93;;
11854;SDS011;5987;53.140;8.904;2022-12-07T08:32:49;6.93;;;4.07;;
11854;SDS011;5987;53.140;8.904;2022-12-07T08:35:53;14.43;;;3.80;;
11854;SDS011;5987;53.140;8.904;2022-12-07T08:38:57;4.47;;;3.10;;
11854;SDS011;5987;53.140;8.904;2022-12-07T08:42:21;6.13;;;2.63;;
11854;SDS011;5987;53.140;8.904;2022-12-07T08:45:30;8.03;;;2.13;;
11854;SDS011;5987;53.140;8.904;2022-12-07T08:48:39;5.57;;;2.40;;
11854;SDS011;5987;53.140;8.904;2022-12-07T08:51:49;5.73;;;2.40;;
11854;SDS011;5987;53.140;8.904;2022-12-07T08:54:53;6.33;;;2.13;;
11854;SDS011;5987;53.140;8.904;2022-12-07T08:57:57;5.93;;;2.07;;
11854;SDS011;5987;53.140;8.904;2022-12-07T09:01:03;2.80;;;1.40;;
11854;SDS011;5987;53.140;8.904;2022-12-07T09:04:08;4.03;;;1.77;;
11854;SDS011;5987;53.140;8.904;2022-12-07T09:07:12;7.33;;;1.30;;
11854;SDS011;5987;53.140;8.904;2022-12-07T09:10:17;4.13;;;0.90;;
11854;SDS011;5987;53.140;8.904;2022-12-07T09:13:21;3.10;;;0.90;;
11854;SDS011;5987;53.140;8.904;2022-12-07T09:16:26;3.23;;;0.80;;
11854;SDS011;5987;53.140;8.904;2022-12-07T09:19:30;2.47;;;1.03;;
11854;SDS011;5987;53.140;8.904;2022-12-07T09:22:33;2.20;;;1.00;;
11854;SDS011;5987;53.140;8.904;2022-12-07T09:25:37;4.77;;;1.03;;
11854;SDS011;5987;53.140;8.904;2022-12-07T09:28:41;2.73;;;0.90;;
11854;SDS011;5987;53.140;8.904;2022-12-07T09:31:46;3.97;;;1.03;;
11854;SDS011;5987;53.140;8.904;2022-12-07T09:34:49;5.67;;;1.30;;
11854;SDS011;5987;53.140;8.904;2022-12-07T09:37:53;4.10;;;0.77;;
11854;SDS011;5987;53.140;8.904;2022-12-07T09:40:57;2.97;;;1.00;;
11854;SDS011;5987;53.140;8.904;2022-12-07T09:44:09;2.57;;;1.17;;
11854;SDS011;5987;53.140;8.904;2022-12-07T09:47:18;4.63;;;2.00;;
11854;SDS011;5987;53.140;8.904;2022-12-07T09:50:23;5.80;;;2.00;;
11854;SDS011;5987;53.140;8.904;2022-12-07T09:53:32;4.47;;;2.20;;
11854;SDS011;5987;53.140;8.904;2022-12-07T09:56:39;5.70;;;3.30;;
11854;SDS011;5987;53.140;8.904;2022-12-07T09:59:43;5.50;;;2.57;;
11854;SDS011;5987;53.140;8.904;2022-12-07T10:02:49;4.40;;;2.20;;
11854;SDS011;5987;53.140;8.904;2022-12-07T10:05:58;7.80;;;2.70;;
11854;SDS011;5987;53.140;8.904;2022-12-07T10:09:02;8.33;;;3.97;;
11854;SDS011;5987;53.140;8.904;2022-12-07T10:12:12;8.60;;;3.27;;
11854;SDS011;5987;53.140;8.904;2022-12-07T10:15:22;7.43;;;3.40;;
11854;SDS011;5987;53.140;8.904;2022-12-07T10:18:28;8.10;;;4.87;;
11854;SDS011;5987;53.140;8.904;2022-12-07T10:21:35;8.27;;;3.30;;
11854;SDS011;5987;53.140;8.904;2022-12-07T10:24:39;4.27;;;1.43;;
11854;SDS011;5987;53.140;8.904;2022-12-07T10:27:44;5.83;;;1.83;;
11854;SDS011;5987;53.140;8.904;2022-12-07T10:31:03;4.17;;;1.70;;
11854;SDS011;5987;53.140;8.904;2022-12-07T10:34:23;5.20;;;1.47;;
11854;SDS011;5987;53.140;8.904;2022-12-07T10:37:30;3.57;;;1.43;;
11854;SDS011;5987;53.140;8.904;2022-12-07T10:40:43;6.70;;;1.83;;
11854;SDS011;5987;53.140;8.904;2022-12-07T10:43:48;5.57;;;1.53;;
11854;SDS011;5987;53.140;8.904;2022-12-07T10:47:02;1.30;;;1.07;;
11854;SDS011;5987;53.140;8.904;2022-12-07T10:54:12;4.20;;;1.53;;
11854;SDS011;5987;53.140;8.904;2022-12-07T10:57:32;5.63;;;1.67;;
11854;SDS011;5987;53.140;8.904;2022-12-07T11:00:51;6.20;;;1.90;;
11854;SDS011;5987;53.140;8.904;2022-12-07T11:04:11;4.43;;;1.80;;
11854;SDS011;5987;53.140;8.904;2022-12-07T11:07:33;2.63;;;1.50;;
11854;SDS011;5987;53.140;8.904;2022-12-07T11:10:58;2.73;;;1.33;;
11854;SDS011;5987;53.140;8.904;2022-12-07T11:14:14;2.97;;;1.43;;
11854;SDS011;5987;53.140;8.904;2022-12-07T11:17:31;6.57;;;1.60;;
11854;SDS011;5987;53.140;8.904;2022-12-07T11:20:49;1.87;;;1.27;;
11854;SDS011;5987;53.140;8.904;2022-12-07T11:24:03;4.03;;;1.43;;
11854;SDS011;5987;53.140;8.904;2022-12-07T11:27:20;4.90;;;1.70;;
11854;SDS011;5987;53.140;8.904;2022-12-07T11:30:38;4.77;;;1.60;;
11854;SDS011;5987;53.140;8.904;2022-12-07T11:34:00;3.93;;;1.50;;
11854;SDS011;5987;53.140;8.904;2022-12-07T11:37:12;3.77;;;1.60;;
11854;SDS011;5987;53.140;8.904;2022-12-07T11:40:24;3.13;;;1.10;;
11854;SDS011;5987;53.140;8.904;2022-12-07T11:43:36;2.30;;;1.17;;
11854;SDS011;5987;53.140;8.904;2022-12-07T11:46:43;5.17;;;1.33;;
11854;SDS011;5987;53.140;8.904;2022-12-07T11:49:53;5.07;;;1.67;;
11854;SDS011;5987;53.140;8.904;2022-12-07T11:53:09;3.50;;;1.50;;
11854;SDS011;5987;53.140;8.904;2022-12-07T11:56:21;2.87;;;1.43;;
11854;SDS011;5987;53.140;8.904;2022-12-07T11:59:31;3.37;;;1.20;;
11854;SDS011;5987;53.140;8.904;2022-12-07T12:02:43;3.60;;;1.00;;
11854;SDS011;5987;53.140;8.904;2022-12-07T12:05:56;1.80;;;1.00;;
11854;SDS011;5987;53.140;8.904;2022-12-07T12:09:01;5.97;;;1.00;;
11854;SDS011;5987;53.140;8.904;2022-12-07T12:12:42;3.53;;;1.03;;
11854;SDS011;5987;53.140;8.904;2022-12-07T12:16:39;2.30;;;1.10;;
11854;SDS011;5987;53.140;8.904;2022-12-07T12:20:15;3.47;;;0.80;;
11854;SDS011;5987;53.140;8.904;2022-12-07T12:23:27;3.10;;;1.43;;
11854;SDS011;5987;53.140;8.904;2022-12-07T12:26:48;1.83;;;1.20;;
11854;SDS011;5987;53.140;8.904;2022-12-07T12:29:57;3.77;;;1.30;;
11854;SDS011;5987;53.140;8.904;2022-12-07T12:33:12;5.33;;;1.80;;
11854;SDS011;5987;53.140;8.904;2022-12-07T12:36:43;4.90;;;1.77;;
11854;SDS011;5987;53.140;8.904;2022-12-07T12:43:53;2.90;;;0.77;;
11854;SDS011;5987;53.140;8.904;2022-12-07T12:46:59;2.70;;;0.80;;
11854;SDS011;5987;53.140;8.904;2022-12-07T12:50:11;5.93;;;1.10;;
11854;SDS011;5987;53.140;8.904;2022-12-07T12:53:21;2.53;;;0.90;;
11854;SDS011;5987;53.140;8.904;2022-12-07T12:56:32;6.30;;;1.00;;
11854;SDS011;5987;53.140;8.904;2022-12-07T12:59:55;3.00;;;1.33;;
11854;SDS011;5987;53.140;8.904;2022-12-07T13:03:03;3.13;;;1.23;;
11854;SDS011;5987;53.140;8.904;2022-12-07T13:06:17;1.60;;;1.27;;
11854;SDS011;5987;53.140;8.904;2022-12-07T13:09:34;1.90;;;1.17;;
11854;SDS011;5987;53.140;8.904;2022-12-07T13:12:38;2.80;;;1.47;;
11854;SDS011;5987;53.140;8.904;2022-12-07T13:15:44;2.10;;;1.13;;
11854;SDS011;5987;53.140;8.904;2022-12-07T13:18:54;2.50;;;1.73;;
11854;SDS011;5987;53.140;8.904;2022-12-07T13:21:58;5.13;;;1.70;;
11854;SDS011;5987;53.140;8.904;2022-12-07T13:25:03;6.17;;;1.80;;
11854;SDS011;5987;53.140;8.904;2022-12-07T13:28:14;2.90;;;1.60;;
11854;SDS011;5987;53.140;8.904;2022-12-07T13:34:46;9.80;;;1.90;;
11854;SDS011;5987;53.140;8.904;2022-12-07T13:37:50;4.70;;;1.50;;
11854;SDS011;5987;53.140;8.904;2022-12-07T13:41:00;4.60;;;1.50;;
11854;SDS011;5987;53.140;8.904;2022-12-07T13:44:08;3.63;;;1.80;;
11854;SDS011;5987;53.140;8.904;2022-12-07T13:47:15;4.87;;;1.97;;
11854;SDS011;5987;53.140;8.904;2022-12-07T13:50:32;3.23;;;1.70;;
11854;SDS011;5987;53.140;8.904;2022-12-07T13:53:40;4.40;;;1.47;;
11854;SDS011;5987;53.140;8.904;2022-12-07T13:56:51;2.63;;;1.20;;
11854;SDS011;5987;53.140;8.904;2022-12-07T13:59:55;5.33;;;1.53;;
11854;SDS011;5987;53.140;8.904;2022-12-07T14:03:01;5.10;;;1.03;;
11854;SDS011;5987;53.140;8.904;2022-12-07T14:06:26;5.63;;;1.60;;
11854;SDS011;5987;53.140;8.904;2022-12-07T14:09:30;3.20;;;1.30;;
11854;SDS011;5987;53.140;8.904;2022-12-07T14:12:35;5.03;;;1.20;;
11854;SDS011;5987;53.140;8.904;2022-12-07T14:15:39;6.63;;;1.23;;
11854;SDS011;5987;53.140;8.904;2022-12-07T14:18:43;5.20;;;1.60;;
11854;SDS011;5987;53.140;8.904;2022-12-07T14:21:49;6.23;;;1.50;;
11854;SDS011;5987;53.140;8.904;2022-12-07T14:25:17;1.83;;;1.10;;
11854;SDS011;5987;53.140;8.904;2022-12-07T14:28:25;4.93;;;1.30;;
11854;SDS011;5987;53.140;8.904;2022-12-07T14:31:32;2.83;;;1.10;;
11854;SDS011;5987;53.140;8.904;2022-12-07T14:34:35;4.37;;;1.07;;
11854;SDS011;5987;53.140;8.904;2022-12-07T14:37:42;3.50;;;1.00;;
11854;SDS011;5987;53.140;8.904;2022-12-07T14:40:48;2.50;;;0.70;;
11854;SDS011;5987;53.140;8.904;2022-12-07T14:43:53;2.10;;;0.90;;
11854;SDS011;5987;53.140;8.904;2022-12-07T14:47:16;1.53;;;0.50;;
11854;SDS011;5987;53.140;8.904;2022-12-07T14:50:42;1.17;;;0.67;;
11854;SDS011;5987;53.140;8.904;2022-12-07T14:54:15;1.93;;;0.80;;
11854;SDS011;5987;53.140;8.904;2022-12-07T14:57:21;2.40;;;1.30;;
11854;SDS011;5987;53.140;8.904;2022-12-07T15:00:27;3.20;;;2.13;;
11854;SDS011;5987;53.140;8.904;2022-12-07T15:03:31;2.80;;;1.50;;
11854;SDS011;5987;53.140;8.904;2022-12-07T15:06:36;6.40;;;2.03;;
11854;SDS011;5987;53.140;8.904;2022-12-07T15:09:41;2.33;;;1.07;;
11854;SDS011;5987;53.140;8.904;2022-12-07T15:12:45;4.63;;;1.83;;
11854;SDS011;5987;53.140;8.904;2022-12-07T15:15:50;5.27;;;1.47;;
11854;SDS011;5987;53.140;8.904;2022-12-07T15:18:56;3.13;;;1.50;;
11854;SDS011;5987;53.140;8.904;2022-12-07T15:22:19;3.80;;;1.10;;
11854;SDS011;5987;53.140;8.904;2022-12-07T15:25:24;2.77;;;1.37;;
11854;SDS011;5987;53.140;8.904;2022-12-07T15:28:28;3.90;;;1.73;;
11854;SDS011;5987;53.140;8.904;2022-12-07T15:31:32;2.40;;;1.60;;
11854;SDS011;5987;53.140;8.904;2022-12-07T15:34:57;3.73;;;1.70;;
11854;SDS011;5987;53.140;8.904;2022-12-07T15:38:01;3.23;;;1.83;;
11854;SDS011;5987;53.140;8.904;2022-12-07T15:41:06;4.10;;;2.00;;
11854;SDS011;5987;53.140;8.904;2022-12-07T15:44:11;2.53;;;1.77;;
11854;SDS011;5987;53.140;8.904;2022-12-07T15:47:33;7.07;;;2.10;;
11854;SDS011;5987;53.140;8.904;2022-12-07T15:51:01;4.47;;;2.10;;
11854;SDS011;5987;53.140;8.904;2022-12-07T15:54:08;4.93;;;2.47;;
11854;SDS011;5987;53.140;8.904;2022-12-07T15:57:21;4.27;;;2.07;;
11854;SDS011;5987;53.140;8.904;2022-12-07T16:00:26;5.37;;;2.47;;
11854;SDS011;5987;53.140;8.904;2022-12-07T16:03:29;5.00;;;2.60;;
11854;SDS011;5987;53.140;8.904;2022-12-07T16:06:33;12.33;;;3.37;;
11854;SDS011;5987;53.140;8.904;2022-12-07T16:09:37;9.20;;;4.17;;
11854;SDS011;5987;53.140;8.904;2022-12-07T16:12:43;16.87;;;8.63;;
11854;SDS011;5987;53.140;8.904;2022-12-07T16:15:46;12.23;;;6.37;;
11854;SDS011;5987;53.140;8.904;2022-12-07T16:18:51;8.63;;;4.90;;
11854;SDS011;5987;53.140;8.904;2022-12-07T16:21:55;9.90;;;4.33;;
11854;SDS011;5987;53.140;8.904;2022-12-07T16:24:59;4.60;;;2.63;;
11854;SDS011;5987;53.140;8.904;2022-12-07T16:28:05;7.97;;;2.77;;
11854;SDS011;5987;53.140;8.904;2022-12-07T16:31:10;3.17;;;2.37;;
11854;SDS011;5987;53.140;8.904;2022-12-07T16:34:16;4.77;;;2.50;;
11854;SDS011;5987;53.140;8.904;2022-12-07T16:37:21;7.97;;;3.40;;
11854;SDS011;5987;53.140;8.904;2022-12-07T16:40:25;6.30;;;3.20;;
11854;SDS011;5987;53.140;8.904;2022-12-07T16:43:30;9.37;;;3.43;;
11854;SDS011;5987;53.140;8.904;2022-12-07T16:46:34;9.97;;;3.00;;
11854;SDS011;5987;53.140;8.904;2022-12-07T16:49:38;5.63;;;3.40;;
11854;SDS011;5987;53.140;8.904;2022-12-07T16:52:42;8.50;;;4.57;;
11854;SDS011;5987;53.140;8.904;2022-12-07T16:55:46;8.47;;;5.13;;
11854;SDS011;5987;53.140;8.904;2022-12-07T16:58:51;6.07;;;5.37;;
11854;SDS011;5987;53.140;8.904;2022-12-07T17:01:56;7.90;;;5.20;;
11854;SDS011;5987;53.140;8.904;2022-12-07T17:04:59;5.73;;;4.83;;
11854;SDS011;5987;53.140;8.904;2022-12-07T17:08:04;8.97;;;5.57;;
11854;SDS011;5987;53.140;8.904;2022-12-07T17:11:12;8.60;;;6.57;;
11854;SDS011;5987;53.140;8.904;2022-12-07T17:14:19;12.63;;;9.07;;
11854;SDS011;5987;53.140;8.904;2022-12-07T17:17:40;11.77;;;8.00;;
11854;SDS011;5987;53.140;8.904;2022-12-07T17:20:43;11.43;;;6.93;;
11854;SDS011;5987;53.140;8.904;2022-12-07T17:23:47;9.27;;;4.93;;
11854;SDS011;5987;53.140;8.904;2022-12-07T17:26:51;8.30;;;5.20;;
11854;SDS011;5987;53.140;8.904;2022-12-07T17:29:56;8.27;;;5.30;;
11854;SDS011;5987;53.140;8.904;2022-12-07T17:32:59;10.50;;;5.90;;
11854;SDS011;5987;53.140;8.904;2022-12-07T17:36:09;6.47;;;4.67;;
11854;SDS011;5987;53.140;8.904;2022-12-07T17:39:14;9.20;;;4.40;;
11854;SDS011;5987;53.140;8.904;2022-12-07T17:42:20;9.77;;;4.70;;
11854;SDS011;5987;53.140;8.904;2022-12-07T17:45:41;8.97;;;4.57;;
11854;SDS011;5987;53.140;8.904;2022-12-07T17:48:45;6.70;;;4.80;;
11854;SDS011;5987;53.140;8.904;2022-12-07T17:51:49;8.70;;;5.20;;
11854;SDS011;5987;53.140;8.904;2022-12-07T17:55:10;10.33;;;6.70;;
11854;SDS011;5987;53.140;8.904;2022-12-07T17:58:14;11.60;;;7.57;;
11854;SDS011;5987;53.140;8.904;2022-12-07T18:01:19;12.77;;;7.77;;
11854;SDS011;5987;53.140;8.904;2022-12-07T18:04:25;15.57;;;8.43;;
11854;SDS011;5987;53.140;8.904;2022-12-07T18:07:29;14.90;;;9.13;;
11854;SDS011;5987;53.140;8.904;2022-12-07T18:10:32;17.20;;;9.57;;
11854;SDS011;5987;53.140;8.904;2022-12-07T18:13:36;17.63;;;11.90;;
11854;SDS011;5987;53.140;8.904;2022-12-07T18:16:41;16.17;;;9.67;;
11854;SDS011;5987;53.140;8.904;2022-12-07T18:19:45;15.30;;;10.33;;
11854;SDS011;5987;53.140;8.904;2022-12-07T18:22:49;13.23;;;7.40;;
11854;SDS011;5987;53.140;8.904;2022-12-07T18:25:53;12.93;;;7.60;;
11854;SDS011;5987;53.140;8.904;2022-12-07T18:28:57;13.67;;;8.67;;
11854;SDS011;5987;53.140;8.904;2022-12-07T18:32:03;13.93;;;8.30;;
11854;SDS011;5987;53.140;8.904;2022-12-07T18:35:07;12.53;;;7.37;;
11854;SDS011;5987;53.140;8.904;2022-12-07T18:38:11;7.53;;;6.13;;
11854;SDS011;5987;53.140;8.904;2022-12-07T18:41:15;10.73;;;6.30;;
11854;SDS011;5987;53.140;8.904;2022-12-07T18:44:21;8.93;;;5.97;;
11854;SDS011;5987;53.140;8.904;2022-12-07T18:47:26;9.27;;;6.07;;
11854;SDS011;5987;53.140;8.904;2022-12-07T18:50:29;10.20;;;6.50;;
11854;SDS011;5987;53.140;8.904;2022-12-07T18:53:34;8.93;;;6.07;;
11854;SDS011;5987;53.140;8.904;2022-12-07T18:56:38;11.33;;;5.50;;
11854;SDS011;5987;53.140;8.904;2022-12-07T18:59:42;10.50;;;6.37;;
11854;SDS011;5987;53.140;8.904;2022-12-07T19:02:50;8.50;;;6.13;;
11854;SDS011;5987;53.140;8.904;2022-12-07T19:05:55;7.27;;;4.77;;
11854;SDS011;5987;53.140;8.904;2022-12-07T19:08:59;8.17;;;4.77;;
11854;SDS011;5987;53.140;8.904;2022-12-07T19:12:03;8.47;;;5.13;;
11854;SDS011;5987;53.140;8.904;2022-12-07T19:15:08;10.53;;;5.37;;
11854;SDS011;5987;53.140;8.904;2022-12-07T19:18:15;6.53;;;5.40;;